Flight Track Log - Related Links

Times and Time Zones

All times are in EDT time to prevent confusion due to time zone crossing. See the SWA2182 flight status page for this flight to view local times or setup timezone preferences in your user account.


Time Position Orientation Groundspeed Altitude Reporting Facility
EDT Latitude Longitude Course Direction KTS MPH feet Rate Location/Type
Sat 08:15:38 AM 28.4000 -81.3000 147° Southeast 152 175 800  Level Orlando TRACON
Sat 08:17:02 AM 28.3333 -81.2500 147° Southeast 235 270 4,400 2,920 Climbing Orlando TRACON
Sat 08:18:08 AM 28.3667 -81.1833 60° Northeast 288 331 8,100 2,889 Climbing Orlando TRACON
Sat 08:20:38 AM 28.5839 -81.2378 348° North 328 377 14,800 2,629 Climbing Jacksonville Center
Sat 08:21:38 AM 28.6928 -81.2714 345° North 362 417 17,300 2,550 Climbing Jacksonville Center
Sat 08:22:38 AM 28.8036 -81.3028 346° North 391 450 19,900 2,500 Climbing Jacksonville Center
Sat 08:23:38 AM 28.9189 -81.3364 346° North 406 467 22,300 2,250 Climbing Jacksonville Center
Sat 08:24:38 AM 29.0361 -81.3725 345° North 436 502 24,400 1,900 Climbing Jacksonville Center
Sat 08:25:38 AM 29.1617 -81.3969 350° North 446 513 26,100 1,700 Climbing Jacksonville Center
Sat 08:26:38 AM 29.2933 -81.4092 355° North 466 536 27,800 1,650 Climbing Jacksonville Center
Sat 08:27:38 AM 29.4125 -81.4217 355° North 480 552 29,400 1,900 Climbing Jacksonville Center
Sat 08:28:38 AM 29.5422 -81.4342 355° North 480 552 31,600 1,950 Climbing Jacksonville Center
Sat 08:29:38 AM 29.6717 -81.4464 355° North 475 547 33,300 1,700 Climbing Jacksonville Center
Sat 08:30:38 AM 29.8014 -81.4614 354° North 470 541 35,000 1,600 Climbing Jacksonville Center
Sat 08:31:38 AM 29.9308 -81.4714 356° North 464 534 36,500 1,000 Climbing Jacksonville Center
Sat 08:32:38 AM 30.0731 -81.4836 356° North 464 534 37,000 250 Climbing Jacksonville Center
Sat 08:33:38 AM 30.2003 -81.4842 360° North 464 534 37,000  Level Jacksonville Center
Sat 08:34:38 AM 30.3317 -81.4775 North 459 528 37,000 400 Level Jacksonville Center
Sat 08:35:38 AM 30.4633 -81.4706 North 459 528 37,800 900 Climbing Jacksonville Center
Sat 08:36:38 AM 30.5906 -81.4639 North 459 528 38,800 600 Climbing Jacksonville Center
Sat 08:37:38 AM 30.7178 -81.4619 North 459 528 39,000 100 Climbing Jacksonville Center
Sat 08:38:38 AM 30.8492 -81.4553 North 459 528 39,000  Level Jacksonville Center
Sat 08:39:38 AM 30.9786 -81.4508 North 459 528 39,000  Level Jacksonville Center
Sat 08:40:38 AM 31.1014 -81.3981 20° North 451 519 39,000  Level Jacksonville Center
Sat 08:41:38 AM 31.2089 -81.3186 32° Northeast 448 516 39,000  Level Jacksonville Center
Sat 08:42:38 AM 31.3186 -81.2389 32° Northeast 463 533 39,000  Level Jacksonville Center
Sat 08:43:38 AM 31.4239 -81.1567 34° Northeast 463 533 39,000  Level Jacksonville Center
Sat 08:44:38 AM 31.5231 -81.0842 32° Northeast 452 520 39,000  Level Jacksonville Center
Sat 08:45:38 AM 31.6408 -80.9939 33° Northeast 452 520 39,000  Level Jacksonville Center
Sat 08:46:38 AM 31.7481 -80.9136 32° Northeast 452 520 39,000  Level Jacksonville Center
Sat 08:47:38 AM 31.8575 -80.8306 33° Northeast 452 520 39,000  Level Jacksonville Center
Sat 08:48:38 AM 31.9667 -80.7497 32° Northeast 452 520 39,000  Level Jacksonville Center
Sat 08:49:38 AM 32.0658 -80.6764 32° Northeast 462 532 39,000  Level Jacksonville Center
Sat 08:50:38 AM 32.1853 -80.5853 33° Northeast 462 532 39,000  Level Jacksonville Center
Sat 08:51:38 AM 32.2964 -80.5014 33° Northeast 462 532 39,000  Level Jacksonville Center
Sat 08:52:38 AM 32.4053 -80.4172 33° Northeast 468 539 39,000  Level Jacksonville Center
Sat 08:53:38 AM 32.5122 -80.3331 34° Northeast 463 533 39,000  Level Jacksonville Center
Sat 08:54:38 AM 32.6131 -80.2561 33° Northeast 463 533 39,000  Level Jacksonville Center
Sat 08:55:38 AM 32.7219 -80.1714 33° Northeast 463 533 39,000  Level Jacksonville Center
Sat 08:56:38 AM 32.8306 -80.0842 34° Northeast 463 533 39,000  Level Jacksonville Center
Sat 08:57:38 AM 32.9414 -79.9992 33° Northeast 468 539 39,000  Level Jacksonville Center
Sat 08:58:38 AM 33.0544 -79.9211 30° Northeast 473 544 39,000  Level Jacksonville Center
Sat 08:59:38 AM 33.1650 -79.8406 31° Northeast 468 539 39,000  Level Jacksonville Center
Sat 09:00:38 AM 33.2739 -79.7622 31° Northeast 461 531 39,000  Level Jacksonville Center
Sat 09:01:38 AM 33.3825 -79.6814 32° Northeast 461 531 39,000  Level Jacksonville Center
Sat 09:02:38 AM 33.4931 -79.6000 32° Northeast 461 531 39,000  Level Jacksonville Center
Sat 09:03:38 AM 33.6036 -79.5211 31° Northeast 461 531 39,000  Level Jacksonville Center
Sat 09:04:38 AM 33.7200 -79.4319 32° Northeast 461 531 39,000  Level Jacksonville Center
Sat 09:05:38 AM 33.8325 -79.3500 31° Northeast 456 525 39,000  Level Jacksonville Center
Sat 09:06:38 AM 33.9408 -79.2703 31° Northeast 456 525 39,000  Level Jacksonville Center
Sat 09:08:29 AM 34.1450 -79.1172 32° Northeast 454 522 39,000  Level Washington Center
Sat 09:09:30 AM 34.2536 -79.0367 32° Northeast 454 522 39,000  Level Washington Center
Sat 09:10:30 AM 34.3625 -78.9556 32° Northeast 459 528 39,000  Level Washington Center
Sat 09:11:31 AM 34.4733 -78.8719 32° Northeast 459 528 39,000  Level Washington Center
Sat 09:12:31 AM 34.5842 -78.7856 33° Northeast 464 534 39,000  Level Washington Center
Sat 09:13:29 AM 34.6947 -78.6989 33° Northeast 464 534 39,000  Level Washington Center
Sat 09:14:30 AM 34.7928 -78.6219 33° Northeast 469 540 39,000  Level Washington Center
Sat 09:15:30 AM 34.9097 -78.5325 32° Northeast 463 533 39,000  Level Washington Center
Sat 09:16:31 AM 35.0181 -78.4503 32° Northeast 458 527 39,000  Level Washington Center
Sat 09:17:31 AM 35.1244 -78.3650 33° Northeast 458 527 39,000  Level Washington Center
Sat 09:18:29 AM 35.2306 -78.2847 32° Northeast 458 527 39,000  Level Washington Center
Sat 09:19:30 AM 35.3389 -78.2019 32° Northeast 458 527 39,000  Level Washington Center
Sat 09:20:31 AM 35.4428 -78.1211 32° Northeast 458 527 39,000  Level Washington Center
Sat 09:21:31 AM 35.5511 -78.0353 33° Northeast 458 527 39,000  Level Washington Center
Sat 09:22:31 AM 35.6550 -77.9567 32° Northeast 452 520 39,000  Level Washington Center
Sat 09:23:29 AM 35.7522 -77.8828 32° Northeast 447 514 39,000  Level Washington Center
Sat 09:24:29 AM 35.8561 -77.8011 32° Northeast 447 514 39,000  Level Washington Center
Sat 09:25:29 AM 35.9597 -77.7192 33° Northeast 447 514 39,000  Level Washington Center
Sat 09:26:30 AM 36.0594 -77.6294 36° Northeast 447 514 39,000  Level Washington Center
Sat 09:27:31 AM 36.1592 -77.5369 37° Northeast 447 514 39,000  Level Washington Center
Sat 09:28:31 AM 36.2544 -77.4492 37° Northeast 442 509 39,000  Level Washington Center
Sat 09:29:29 AM 36.3619 -77.3717 30° Northeast 437 503 39,000  Level Washington Center
Sat 09:30:30 AM 36.4675 -77.2914 31° Northeast 437 503 39,000  Level Washington Center
Sat 09:31:31 AM 36.5750 -77.2136 30° Northeast 437 503 39,000  Level Washington Center
Sat 09:32:31 AM 36.6803 -77.1356 31° Northeast 437 503 39,000  Level Washington Center
Sat 09:33:31 AM 36.7856 -77.0547 32° Northeast 442 509 39,000  Level Washington Center
Sat 09:34:29 AM 36.8908 -76.9761 31° Northeast 442 509 39,000  Level Washington Center
Sat 09:35:30 AM 36.9981 -76.8947 31° Northeast 442 509 39,000  Level Washington Center
Sat 09:36:31 AM 37.1158 -76.8083 30° Northeast 442 509 39,000  Level Washington Center
Sat 09:37:29 AM 37.2208 -76.7264 32° Northeast 437 503 39,000  Level Washington Center
Sat 09:38:30 AM 37.3303 -76.6444 31° Northeast 442 509 39,000  Level Washington Center
Sat 09:39:31 AM 37.4372 -76.5622 31° Northeast 442 509 39,000  Level Washington Center
Sat 09:40:31 AM 37.5483 -76.4797 30° Northeast 452 520 39,000  Level Washington Center
Sat 09:41:29 AM 37.6533 -76.3997 31° Northeast 447 514 39,000  Level Washington Center
Sat 09:42:30 AM 37.7600 -76.3194 31° Northeast 447 514 39,000  Level Washington Center
Sat 09:43:31 AM 37.8669 -76.2361 32° Northeast 447 514 39,000  Level Washington Center
Sat 09:44:29 AM 37.9633 -76.1633 31° Northeast 452 520 39,000  Level Washington Center
Sat 09:45:29 AM 38.0678 -76.0822 31° Northeast 447 514 39,000  Level Washington Center
Sat 09:46:31 AM 38.1725 -76.0011 31° Northeast 447 514 39,000  Level Washington Center
Sat 09:47:31 AM 38.2792 -75.9197 31° Northeast 452 520 39,000  Level Washington Center
Sat 09:48:29 AM 38.3836 -75.8353 32° Northeast 447 514 39,000  Level Washington Center
Sat 09:49:30 AM 38.4900 -75.7614 29° Northeast 447 514 39,000  Level Washington Center
Sat 09:50:28 AM 38.5942 -75.6714 34° Northeast 447 514 39,000  Level Washington Center
Sat 09:51:30 AM 38.7006 -75.5889 31° Northeast 447 514 39,000  Level Washington Center
Sat 09:52:31 AM 38.8214 -75.5011 30° Northeast 453 521 39,000  Level Washington Center
Sat 09:53:29 AM 38.9278 -75.4128 33° Northeast 453 521 39,000  Level Washington Center
Sat 09:54:30 AM 39.0339 -75.3297 31° Northeast 453 521 39,000  Level Washington Center
Sat 09:55:31 AM 39.1378 -75.2436 33° Northeast 447 514 39,000  Level Washington Center
Sat 09:56:29 AM 39.2417 -75.1600 32° Northeast 447 514 39,000 -458 Level Washington Center
Sat 09:57:29 AM 39.3414 -75.0656 36° Northeast 447 514 38,100 -900 Descending Washington Center
Sat 09:58:29 AM 39.4325 -74.9547 43° Northeast 442 509 37,200 -393 Descending Washington Center
Sat 10:00:17 AM 39.5936 -74.7633 42° Northeast 472 543 37,000 -71 Descending New York Center
Sat 10:01:17 AM 39.6761 -74.6656 42° Northeast 446 513 37,000 -1,091 Level New York Center
Sat 10:02:18 AM 39.7758 -74.5469 42° Northeast 434 499 34,800 -2,339 Descending New York Center
Sat 10:03:15 AM 39.8692 -74.4331 43° Northeast 434 499 32,400 -2,308 Descending New York Center
Sat 10:04:15 AM 39.9578 -74.3292 42° Northeast 434 499 30,300 -2,083 Descending New York Center
Sat 10:05:16 AM 40.0442 -74.2253 43° Northeast 429 494 28,200 -2,033 Descending New York Center
Sat 10:06:16 AM 40.1286 -74.1208 43° Northeast 424 488 26,200 -1,587 Descending New York Center
Sat 10:07:17 AM 40.2128 -74.0217 42° Northeast 417 480 25,000 -595 Descending New York Center
Sat 10:08:17 AM 40.2925 -73.9219 44° Northeast 402 463 25,000  Level New York Center
Sat 10:09:51 AM 40.4169 -73.7703 43° Northeast 407 468 25,000  Level Boston Center
Sat 10:10:51 AM 40.5058 -73.6575 44° Northeast 402 463 25,000 -500 Level Boston Center
Sat 10:11:51 AM 40.5858 -73.5578 43° Northeast 396 456 24,000 -1,500 Descending Boston Center
Sat 10:12:51 AM 40.6639 -73.4578 44° Northeast 391 450 22,000 -1,950 Descending Boston Center
Sat 10:13:51 AM 40.7439 -73.3686 40° Northeast 379 436 20,100 -1,500 Descending Boston Center
Sat 10:14:51 AM 40.8114 -73.2847 43° Northeast 374 430 19,000 -550 Descending Boston Center
Sat 10:15:51 AM 40.8892 -73.1950 41° Northeast 368 423 19,000 -50 Level Boston Center
Sat 10:16:51 AM 40.9647 -73.1081 41° Northeast 363 418 18,900 -700 Descending Boston Center
Sat 10:17:51 AM 41.0381 -73.0208 42° Northeast 358 412 17,600 -1,650 Descending Boston Center
Sat 10:18:51 AM 41.1197 -72.9250 41° Northeast 358 412 15,600 -1,981 Descending Boston Center
Sat 10:19:37 AM 41.1742 -72.8619 41° Northeast 356 410 14,100 -1,902 Descending Boston Center
Sat 10:20:13 AM 41.2181 -72.8100 42° Northeast 354 407 13,000 -1,784 Descending Boston Center
Sat 10:20:51 AM 41.2661 -72.7494 43° Northeast 358 412 11,900 -1,224 Descending Boston Center
Sat 10:21:51 AM 41.3497 -72.7194 15° North 311 358 11,000 -700 Descending Boston Center
Sat 10:22:51 AM 41.4247 -72.7419 347° North 294 338 10,500 -1,150 Descending Boston Center
Sat 10:23:51 AM 41.5164 -72.7728 346° North 300 345 8,700 -1,650 Descending Boston Center
Sat 10:24:51 AM 41.5911 -72.7953 347° North 300 345 7,200 -1,700 Descending Boston Center
Sat 10:25:51 AM 41.6786 -72.8264 345° North 300 345 5,300 -1,450 Descending Boston Center
Sat 10:26:51 AM 41.7536 -72.8519 346° North 294 338 4,300 -950 Descending Boston Center
Sat 10:27:51 AM 41.8183 -72.8439 North 241 277 3,400 -900 Descending Boston Center
Sat 10:28:51 AM 41.8581 -72.7942 43° Northeast 201 231 2,500 -972 Descending Boston Center
Sat 10:30:13 AM 41.8978 -72.7442 43° Northeast 147 169 1,100 -950 Descending Boston Center
Sat 10:30:51 AM 41.9167 -72.7219 41° Northeast 145 167 600 -429 Descending Boston Center
Sat 10:31:51 AM 41.9417 -72.6914 42° Northeast 140 161 400 -200 Descending Boston Center

Login

Don't have an account? Register now (free) for customized features, flight alerts, and more!